sensor_id;sensor_type;location;lat;lon;timestamp;pressure;altitude;pressure_sealevel;temperature;humidity
55675;BME280;41562;44.330;23.802;2023-03-03T00:00:23;100695.88;;;5.04;92.43
55675;BME280;41562;44.330;23.802;2023-03-03T00:02:51;100689.00;;;5.14;92.90
55675;BME280;41562;44.330;23.802;2023-03-03T00:05:19;100689.28;;;5.24;94.97
55675;BME280;41562;44.330;23.802;2023-03-03T00:08:05;100681.03;;;5.14;93.35
55675;BME280;41562;44.330;23.802;2023-03-03T00:10:43;100677.53;;;5.02;93.69
55675;BME280;41562;44.330;23.802;2023-03-03T00:13:47;100675.66;;;4.91;94.63
55675;BME280;41562;44.330;23.802;2023-03-03T00:16:53;100673.69;;;5.16;96.89
55675;BME280;41562;44.330;23.802;2023-03-03T00:19:25;100669.88;;;4.94;95.03
55675;BME280;41562;44.330;23.802;2023-03-03T00:21:55;100659.16;;;4.89;95.34
55675;BME280;41562;44.330;23.802;2023-03-03T00:24:47;100654.88;;;4.88;97.01
55675;BME280;41562;44.330;23.802;2023-03-03T00:30:16;100650.19;;;4.90;95.73
55675;BME280;41562;44.330;23.802;2023-03-03T00:32:55;100645.31;;;4.87;95.82
55675;BME280;41562;44.330;23.802;2023-03-03T00:35:31;100642.91;;;4.85;95.56
55675;BME280;41562;44.330;23.802;2023-03-03T00:38:15;100644.19;;;4.95;95.60
55675;BME280;41562;44.330;23.802;2023-03-03T00:40:44;100640.53;;;4.96;95.28
55675;BME280;41562;44.330;23.802;2023-03-03T00:43:21;100637.66;;;4.97;95.49
55675;BME280;41562;44.330;23.802;2023-03-03T00:45:51;100631.53;;;4.97;95.35
55675;BME280;41562;44.330;23.802;2023-03-03T00:48:48;100633.25;;;4.91;95.49
55675;BME280;41562;44.330;23.802;2023-03-03T00:51:32;100630.22;;;4.88;95.29
55675;BME280;41562;44.330;23.802;2023-03-03T00:54:05;100626.00;;;4.87;95.33
55675;BME280;41562;44.330;23.802;2023-03-03T00:56:52;100623.56;;;4.85;95.23
55675;BME280;41562;44.330;23.802;2023-03-03T00:59:19;100625.19;;;4.86;95.30
55675;BME280;41562;44.330;23.802;2023-03-03T01:01:47;100622.97;;;4.83;95.90
55675;BME280;41562;44.330;23.802;2023-03-03T01:04:14;100623.56;;;4.85;96.61
55675;BME280;41562;44.330;23.802;2023-03-03T01:06:41;100620.41;;;5.06;96.59
55675;BME280;41562;44.330;23.802;2023-03-03T01:09:09;100619.13;;;4.97;96.46
55675;BME280;41562;44.330;23.802;2023-03-03T01:11:45;100611.47;;;4.89;96.59
55675;BME280;41562;44.330;23.802;2023-03-03T01:14:13;100610.41;;;4.78;96.88
55675;BME280;41562;44.330;23.802;2023-03-03T01:16:51;100605.69;;;4.80;97.22
55675;BME280;41562;44.330;23.802;2023-03-03T01:19:19;100609.28;;;4.86;96.17
55675;BME280;41562;44.330;23.802;2023-03-03T01:21:46;100603.59;;;4.82;96.34
55675;BME280;41562;44.330;23.802;2023-03-03T01:24:14;100604.34;;;4.90;97.45
55675;BME280;41562;44.330;23.802;2023-03-03T01:26:41;100599.13;;;4.83;97.26
55675;BME280;41562;44.330;23.802;2023-03-03T01:29:11;100594.66;;;4.95;96.70
55675;BME280;41562;44.330;23.802;2023-03-03T01:31:38;100582.31;;;4.89;96.90
55675;BME280;41562;44.330;23.802;2023-03-03T01:34:06;100593.72;;;4.90;97.38
55675;BME280;41562;44.330;23.802;2023-03-03T01:36:59;100588.22;;;4.91;97.80
55675;BME280;41562;44.330;23.802;2023-03-03T01:39:29;100589.97;;;4.97;97.11
55675;BME280;41562;44.330;23.802;2023-03-03T01:41:57;100576.94;;;4.96;97.06
55675;BME280;41562;44.330;23.802;2023-03-03T01:44:33;100574.31;;;5.07;100.00
55675;BME280;41562;44.330;23.802;2023-03-03T01:47:18;100574.75;;;4.93;99.04
55675;BME280;41562;44.330;23.802;2023-03-03T01:49:59;100573.66;;;4.82;98.37
55675;BME280;41562;44.330;23.802;2023-03-03T01:52:49;100568.22;;;4.77;98.29
55675;BME280;41562;44.330;23.802;2023-03-03T01:55:31;100563.75;;;4.77;99.48
55675;BME280;41562;44.330;23.802;2023-03-03T01:58:09;100563.63;;;4.72;99.08
55675;BME280;41562;44.330;23.802;2023-03-03T02:00:46;100560.91;;;4.91;98.24
55675;BME280;41562;44.330;23.802;2023-03-03T02:03:25;100558.94;;;4.86;97.46
55675;BME280;41562;44.330;23.802;2023-03-03T02:06:10;100557.19;;;4.80;98.96
55675;BME280;41562;44.330;23.802;2023-03-03T02:11:39;100558.09;;;4.74;99.02
55675;BME280;41562;44.330;23.802;2023-03-03T02:14:09;100559.25;;;4.78;98.72
55675;BME280;41562;44.330;23.802;2023-03-03T02:16:38;100561.66;;;4.68;100.00
55675;BME280;41562;44.330;23.802;2023-03-03T02:19:12;100552.06;;;4.67;99.89
55675;BME280;41562;44.330;23.802;2023-03-03T02:21:43;100551.06;;;4.68;99.99
55675;BME280;41562;44.330;23.802;2023-03-03T02:24:37;100549.38;;;4.85;100.00
55675;BME280;41562;44.330;23.802;2023-03-03T02:27:08;100544.34;;;4.95;100.00
55675;BME280;41562;44.330;23.802;2023-03-03T02:29:35;100543.19;;;4.91;99.13
55675;BME280;41562;44.330;23.802;2023-03-03T02:32:03;100541.03;;;4.70;99.81
55675;BME280;41562;44.330;23.802;2023-03-03T02:34:45;100538.31;;;4.88;100.00
55675;BME280;41562;44.330;23.802;2023-03-03T02:37:14;100538.31;;;4.88;100.00
55675;BME280;41562;44.330;23.802;2023-03-03T02:39:42;100536.81;;;4.80;99.75
55675;BME280;41562;44.330;23.802;2023-03-03T02:42:22;100541.34;;;4.92;98.69
55675;BME280;41562;44.330;23.802;2023-03-03T02:45:02;100538.69;;;4.92;100.00
55675;BME280;41562;44.330;23.802;2023-03-03T02:47:31;100539.69;;;4.79;99.31
55675;BME280;41562;44.330;23.802;2023-03-03T02:49:58;100542.81;;;4.88;98.78
55675;BME280;41562;44.330;23.802;2023-03-03T02:52:25;100534.09;;;4.69;99.13
55675;BME280;41562;44.330;23.802;2023-03-03T02:54:53;100535.00;;;4.63;99.62
55675;BME280;41562;44.330;23.802;2023-03-03T02:57:21;100534.47;;;4.72;100.00
55675;BME280;41562;44.330;23.802;2023-03-03T02:59:48;100538.75;;;4.73;98.89
55675;BME280;41562;44.330;23.802;2023-03-03T03:02:26;100527.47;;;4.78;99.46
55675;BME280;41562;44.330;23.802;2023-03-03T03:04:55;100526.25;;;4.92;100.00
55675;BME280;41562;44.330;23.802;2023-03-03T03:07:23;100527.28;;;4.91;99.91
55675;BME280;41562;44.330;23.802;2023-03-03T03:09:51;100533.47;;;4.85;99.60
55675;BME280;41562;44.330;23.802;2023-03-03T03:12:18;100531.75;;;4.79;99.13
55675;BME280;41562;44.330;23.802;2023-03-03T03:14:46;100524.22;;;4.76;99.56
55675;BME280;41562;44.330;23.802;2023-03-03T03:17:13;100528.81;;;4.69;99.76
55675;BME280;41562;44.330;23.802;2023-03-03T03:19:40;100518.47;;;4.67;99.47
55675;BME280;41562;44.330;23.802;2023-03-03T03:22:08;100522.25;;;4.71;99.44
55675;BME280;41562;44.330;23.802;2023-03-03T03:24:35;100520.03;;;4.87;99.58
55675;BME280;41562;44.330;23.802;2023-03-03T03:27:03;100521.38;;;4.77;100.00
55675;BME280;41562;44.330;23.802;2023-03-03T03:29:32;100520.56;;;4.77;99.21
55675;BME280;41562;44.330;23.802;2023-03-03T03:32:00;100514.44;;;4.76;99.94
55675;BME280;41562;44.330;23.802;2023-03-03T03:34:27;100517.31;;;4.75;99.15
55675;BME280;41562;44.330;23.802;2023-03-03T03:36:56;100512.00;;;4.75;99.71
55675;BME280;41562;44.330;23.802;2023-03-03T03:39:23;100507.53;;;4.75;99.48
55675;BME280;41562;44.330;23.802;2023-03-03T03:42:01;100514.00;;;4.79;98.96
55675;BME280;41562;44.330;23.802;2023-03-03T03:44:28;100514.63;;;4.63;99.72
55675;BME280;41562;44.330;23.802;2023-03-03T03:46:56;100506.03;;;4.68;100.00
55675;BME280;41562;44.330;23.802;2023-03-03T03:49:23;100501.06;;;4.71;100.00
55675;BME280;41562;44.330;23.802;2023-03-03T03:52:01;100498.88;;;4.68;100.00
55675;BME280;41562;44.330;23.802;2023-03-03T03:54:28;100491.19;;;4.78;100.00
55675;BME280;41562;44.330;23.802;2023-03-03T03:56:56;100499.03;;;4.85;100.00
55675;BME280;41562;44.330;23.802;2023-03-03T03:59:23;100504.75;;;4.70;100.00
55675;BME280;41562;44.330;23.802;2023-03-03T04:01:50;100506.47;;;4.65;100.00
55675;BME280;41562;44.330;23.802;2023-03-03T04:04:23;100496.69;;;4.65;100.00
55675;BME280;41562;44.330;23.802;2023-03-03T04:06:51;100495.28;;;4.63;100.00
55675;BME280;41562;44.330;23.802;2023-03-03T04:09:18;100494.94;;;4.59;100.00
55675;BME280;41562;44.330;23.802;2023-03-03T04:11:48;100490.88;;;4.57;100.00
55675;BME280;41562;44.330;23.802;2023-03-03T04:14:16;100493.31;;;4.58;100.00
55675;BME280;41562;44.330;23.802;2023-03-03T04:16:43;100485.59;;;4.57;100.00
55675;BME280;41562;44.330;23.802;2023-03-03T04:19:16;100490.69;;;4.70;100.00
55675;BME280;41562;44.330;23.802;2023-03-03T04:21:44;100488.16;;;4.63;100.00
55675;BME280;41562;44.330;23.802;2023-03-03T04:24:11;100483.88;;;4.62;100.00
55675;BME280;41562;44.330;23.802;2023-03-03T04:26:50;100487.84;;;4.83;100.00
55675;BME280;41562;44.330;23.802;2023-03-03T04:29:17;100481.53;;;4.84;99.63
55675;BME280;41562;44.330;23.802;2023-03-03T04:31:45;100476.56;;;4.88;99.01
55675;BME280;41562;44.330;23.802;2023-03-03T04:34:14;100480.75;;;4.95;99.89
55675;BME280;41562;44.330;23.802;2023-03-03T04:36:47;100475.22;;;9.88;85.90
55675;BME280;41562;44.330;23.802;2023-03-03T04:39:16;100477.66;;;11.08;76.68
55675;BME280;41562;44.330;23.802;2023-03-03T04:41:44;100474.38;;;10.30;75.53
55675;BME280;41562;44.330;23.802;2023-03-03T04:44:11;100470.69;;;7.59;83.69
55675;BME280;41562;44.330;23.802;2023-03-03T04:46:44;100471.84;;;6.63;89.72
55675;BME280;41562;44.330;23.802;2023-03-03T04:49:20;100465.41;;;5.90;94.87
55675;BME280;41562;44.330;23.802;2023-03-03T04:51:48;100456.19;;;5.93;100.00
55675;BME280;41562;44.330;23.802;2023-03-03T04:54:16;100468.66;;;5.46;98.55
55675;BME280;41562;44.330;23.802;2023-03-03T04:56:46;100460.94;;;5.09;100.00
55675;BME280;41562;44.330;23.802;2023-03-03T04:59:17;100463.47;;;4.93;100.00
55675;BME280;41562;44.330;23.802;2023-03-03T05:01:45;100464.34;;;4.75;100.00
55675;BME280;41562;44.330;23.802;2023-03-03T05:04:13;100473.59;;;4.84;100.00
55675;BME280;41562;44.330;23.802;2023-03-03T05:06:40;100468.81;;;4.74;100.00
55675;BME280;41562;44.330;23.802;2023-03-03T05:09:08;100471.34;;;4.69;100.00
55675;BME280;41562;44.330;23.802;2023-03-03T05:11:42;100468.81;;;4.74;100.00
55675;BME280;41562;44.330;23.802;2023-03-03T05:14:09;100465.81;;;6.39;100.00
55675;BME280;41562;44.330;23.802;2023-03-03T05:16:37;100473.06;;;8.42;88.51
55675;BME280;41562;44.330;23.802;2023-03-03T05:19:04;100470.38;;;6.55;95.98
55675;BME280;41562;44.330;23.802;2023-03-03T05:21:32;100483.09;;;5.61;96.40
55675;BME280;41562;44.330;23.802;2023-03-03T05:24:11;100483.19;;;5.08;100.00
55675;BME280;41562;44.330;23.802;2023-03-03T05:26:39;100484.19;;;4.84;100.00
55675;BME280;41562;44.330;23.802;2023-03-03T05:29:07;100475.56;;;5.00;100.00
55675;BME280;41562;44.330;23.802;2023-03-03T05:31:37;100478.69;;;4.97;100.00
55675;BME280;41562;44.330;23.802;2023-03-03T05:34:05;100484.72;;;4.74;100.00
55675;BME280;41562;44.330;23.802;2023-03-03T05:36:41;100480.41;;;4.92;100.00
55675;BME280;41562;44.330;23.802;2023-03-03T05:39:10;100486.63;;;4.97;100.00
55675;BME280;41562;44.330;23.802;2023-03-03T05:41:38;100483.59;;;4.82;100.00
55675;BME280;41562;44.330;23.802;2023-03-03T05:44:05;100481.09;;;4.57;100.00
55675;BME280;41562;44.330;23.802;2023-03-03T05:46:33;100486.53;;;4.62;100.00
55675;BME280;41562;44.330;23.802;2023-03-03T05:49:01;100478.84;;;4.61;100.00
55675;BME280;41562;44.330;23.802;2023-03-03T05:51:29;100487.69;;;4.55;100.00
55675;BME280;41562;44.330;23.802;2023-03-03T05:54:06;100481.00;;;4.64;100.00
55675;BME280;41562;44.330;23.802;2023-03-03T05:56:36;100489.66;;;4.71;100.00
55675;BME280;41562;44.330;23.802;2023-03-03T05:59:03;100483.22;;;4.67;100.00
55675;BME280;41562;44.330;23.802;2023-03-03T06:01:30;100487.84;;;4.71;100.00
55675;BME280;41562;44.330;23.802;2023-03-03T06:04:04;100484.06;;;4.79;100.00
55675;BME280;41562;44.330;23.802;2023-03-03T06:06:34;100488.47;;;4.97;100.00
55675;BME280;41562;44.330;23.802;2023-03-03T06:09:08;100489.97;;;5.04;100.00
55675;BME280;41562;44.330;23.802;2023-03-03T06:11:35;100488.59;;;5.13;100.00
55675;BME280;41562;44.330;23.802;2023-03-03T06:14:04;100488.47;;;5.08;100.00
55675;BME280;41562;44.330;23.802;2023-03-03T06:16:37;100488.91;;;4.94;100.00
55675;BME280;41562;44.330;23.802;2023-03-03T06:19:05;100494.06;;;4.77;100.00
55675;BME280;41562;44.330;23.802;2023-03-03T06:21:34;100490.59;;;4.76;100.00
55675;BME280;41562;44.330;23.802;2023-03-03T06:24:01;100479.06;;;4.71;100.00
55675;BME280;41562;44.330;23.802;2023-03-03T06:26:30;100486.34;;;4.75;100.00
55675;BME280;41562;44.330;23.802;2023-03-03T06:28:58;100484.63;;;4.81;100.00
55675;BME280;41562;44.330;23.802;2023-03-03T06:31:26;100488.75;;;4.77;100.00
55675;BME280;41562;44.330;23.802;2023-03-03T06:33:53;100488.78;;;4.89;100.00
55675;BME280;41562;44.330;23.802;2023-03-03T06:36:20;100486.34;;;4.87;100.00
55675;BME280;41562;44.330;23.802;2023-03-03T06:38:48;100493.25;;;4.76;100.00
55675;BME280;41562;44.330;23.802;2023-03-03T06:41:21;100491.63;;;4.75;100.00
55675;BME280;41562;44.330;23.802;2023-03-03T06:43:48;100492.63;;;4.93;100.00
55675;BME280;41562;44.330;23.802;2023-03-03T06:46:16;100495.69;;;4.78;100.00
55675;BME280;41562;44.330;23.802;2023-03-03T06:48:45;100500.66;;;4.86;100.00
55675;BME280;41562;44.330;23.802;2023-03-03T06:51:22;100495.72;;;5.01;100.00
55675;BME280;41562;44.330;23.802;2023-03-03T06:53:53;100501.81;;;4.90;100.00
55675;BME280;41562;44.330;23.802;2023-03-03T06:56:36;100504.84;;;5.05;100.00
55675;BME280;41562;44.330;23.802;2023-03-03T06:59:16;100497.09;;;4.92;100.00
55675;BME280;41562;44.330;23.802;2023-03-03T07:01:49;100496.50;;;4.90;100.00
55675;BME280;41562;44.330;23.802;2023-03-03T07:04:30;100498.72;;;4.93;100.00
55675;BME280;41562;44.330;23.802;2023-03-03T07:07:20;100501.59;;;4.92;100.00
55675;BME280;41562;44.330;23.802;2023-03-03T07:09:50;100498.97;;;5.03;100.00
55675;BME280;41562;44.330;23.802;2023-03-03T07:12:28;100500.13;;;5.07;100.00
55675;BME280;41562;44.330;23.802;2023-03-03T07:17:36;100500.59;;;5.04;100.00
55675;BME280;41562;44.330;23.802;2023-03-03T07:20:22;100499.09;;;5.08;100.00
55675;BME280;41562;44.330;23.802;2023-03-03T07:22:54;100496.00;;;5.11;100.00
55675;BME280;41562;44.330;23.802;2023-03-03T07:25:30;100498.88;;;5.10;100.00
55675;BME280;41562;44.330;23.802;2023-03-03T07:28:35;100494.69;;;5.02;100.00
55675;BME280;41562;44.330;23.802;2023-03-03T07:31:25;100494.16;;;5.12;100.00
55675;BME280;41562;44.330;23.802;2023-03-03T07:33:54;100490.91;;;5.21;100.00
55675;BME280;41562;44.330;23.802;2023-03-03T07:42:12;100487.44;;;5.09;99.57
55675;BME280;41562;44.330;23.802;2023-03-03T07:44:42;100490.91;;;5.10;99.94
55675;BME280;41562;44.330;23.802;2023-03-03T07:50:14;100474.91;;;5.16;99.40
55675;BME280;41562;44.330;23.802;2023-03-03T07:52:49;100481.94;;;5.11;98.99
55675;BME280;41562;44.330;23.802;2023-03-03T07:55:35;100486.19;;;5.12;100.00
55675;BME280;41562;44.330;23.802;2023-03-03T08:03:11;100484.69;;;5.28;98.09
55675;BME280;41562;44.330;23.802;2023-03-03T08:05:48;100479.38;;;5.51;99.10
55675;BME280;41562;44.330;23.802;2023-03-03T08:08:30;100485.38;;;5.58;97.00
55675;BME280;41562;44.330;23.802;2023-03-03T08:11:04;100481.47;;;5.49;97.88
55675;BME280;41562;44.330;23.802;2023-03-03T08:18:39;100483.16;;;5.78;95.86
55675;BME280;41562;44.330;23.802;2023-03-03T08:21:21;100485.94;;;5.83;93.11
55675;BME280;41562;44.330;23.802;2023-03-03T08:23:50;100479.81;;;5.94;93.70
55675;BME280;41562;44.330;23.802;2023-03-03T08:26:22;100477.72;;;6.08;93.87
55675;BME280;41562;44.330;23.802;2023-03-03T08:28:51;100479.09;;;6.11;92.09
55675;BME280;41562;44.330;23.802;2023-03-03T08:31:20;100481.56;;;6.00;89.03
55675;BME280;41562;44.330;23.802;2023-03-03T08:34:08;100481.72;;;6.22;93.69
55675;BME280;41562;44.330;23.802;2023-03-03T08:36:36;100473.97;;;6.21;91.82
55675;BME280;41562;44.330;23.802;2023-03-03T08:39:15;100473.03;;;6.27;89.43
55675;BME280;41562;44.330;23.802;2023-03-03T08:41:43;100470.28;;;6.22;90.23
55675;BME280;41562;44.330;23.802;2023-03-03T08:44:10;100478.88;;;6.12;90.60
55675;BME280;41562;44.330;23.802;2023-03-03T08:46:38;100475.31;;;6.07;91.94
55675;BME280;41562;44.330;23.802;2023-03-03T08:49:15;100473.56;;;6.12;91.82
55675;BME280;41562;44.330;23.802;2023-03-03T08:51:43;100476.88;;;6.19;90.34
55675;BME280;41562;44.330;23.802;2023-03-03T08:54:10;100475.22;;;6.30;92.19
55675;BME280;41562;44.330;23.802;2023-03-03T08:56:38;100475.03;;;6.48;91.20
55675;BME280;41562;44.330;23.802;2023-03-03T08:59:06;100480.63;;;6.35;90.83
55675;BME280;41562;44.330;23.802;2023-03-03T09:01:42;100475.47;;;6.28;90.24
55675;BME280;41562;44.330;23.802;2023-03-03T09:04:10;100468.25;;;6.40;90.94
55675;BME280;41562;44.330;23.802;2023-03-03T09:06:44;100460.47;;;6.51;89.86
55675;BME280;41562;44.330;23.802;2023-03-03T09:09:12;100462.94;;;6.40;89.37
55675;BME280;41562;44.330;23.802;2023-03-03T09:11:39;100462.94;;;6.40;89.52
55675;BME280;41562;44.330;23.802;2023-03-03T09:14:12;100465.78;;;6.51;89.93
55675;BME280;41562;44.330;23.802;2023-03-03T09:16:50;100459.56;;;6.45;88.51
55675;BME280;41562;44.330;23.802;2023-03-03T09:19:27;100456.16;;;6.33;88.16
55675;BME280;41562;44.330;23.802;2023-03-03T09:22:19;100462.84;;;6.80;92.49
55675;BME280;41562;44.330;23.802;2023-03-03T09:24:56;100458.88;;;6.50;84.88
55675;BME280;41562;44.330;23.802;2023-03-03T09:27:33;100456.22;;;6.50;84.98
55675;BME280;41562;44.330;23.802;2023-03-03T09:30:26;100451.78;;;6.55;83.57
55675;BME280;41562;44.330;23.802;2023-03-03T09:32:56;100452.81;;;6.54;82.62
55675;BME280;41562;44.330;23.802;2023-03-03T09:35:37;100457.59;;;6.69;83.76
55675;BME280;41562;44.330;23.802;2023-03-03T09:38:29;100457.00;;;6.50;82.34
55675;BME280;41562;44.330;23.802;2023-03-03T09:49:25;100452.44;;;6.62;84.68
55675;BME280;41562;44.330;23.802;2023-03-03T09:54:54;100453.66;;;6.71;88.53
55675;BME280;41562;44.330;23.802;2023-03-03T10:05:33;100448.25;;;6.83;86.87
55675;BME280;41562;44.330;23.802;2023-03-03T10:11:15;100439.34;;;6.89;84.23
55675;BME280;41562;44.330;23.802;2023-03-03T10:20:11;100425.16;;;6.83;82.73
55675;BME280;41562;44.330;23.802;2023-03-03T10:23:13;100425.06;;;6.78;82.34
55675;BME280;41562;44.330;23.802;2023-03-03T10:26:08;100430.47;;;6.83;82.92
55675;BME280;41562;44.330;23.802;2023-03-03T10:28:54;100419.75;;;6.78;83.08
55675;BME280;41562;44.330;23.802;2023-03-03T10:31:44;100423.72;;;6.93;81.23
55675;BME280;41562;44.330;23.802;2023-03-03T10:34:46;100412.91;;;6.99;81.03
55675;BME280;41562;44.330;23.802;2023-03-03T10:37:20;100413.19;;;7.36;78.51
55675;BME280;41562;44.330;23.802;2023-03-03T10:40:12;100410.38;;;7.26;80.38
55675;BME280;41562;44.330;23.802;2023-03-03T10:43:15;100409.59;;;7.25;79.74
55675;BME280;41562;44.330;23.802;2023-03-03T10:48:53;100387.34;;;7.53;79.87
55675;BME280;41562;44.330;23.802;2023-03-03T10:51:51;100383.97;;;7.41;79.12
55675;BME280;41562;44.330;23.802;2023-03-03T10:57:59;100382.69;;;7.44;77.21
55675;BME280;41562;44.330;23.802;2023-03-03T11:05:50;100370.25;;;7.49;78.25
55675;BME280;41562;44.330;23.802;2023-03-03T11:08:35;100371.50;;;7.42;77.74
55675;BME280;41562;44.330;23.802;2023-03-03T11:14:27;100357.09;;;7.38;76.40
55675;BME280;41562;44.330;23.802;2023-03-03T11:20:19;100358.44;;;7.40;76.69
55675;BME280;41562;44.330;23.802;2023-03-03T11:26:08;100346.19;;;7.39;79.21
55675;BME280;41562;44.330;23.802;2023-03-03T11:32:18;100350.59;;;7.50;77.33
55675;BME280;41562;44.330;23.802;2023-03-03T11:37:58;100344.47;;;7.50;78.57
55675;BME280;41562;44.330;23.802;2023-03-03T11:41:11;100338.38;;;7.76;81.58
55675;BME280;41562;44.330;23.802;2023-03-03T11:43:50;100339.28;;;7.87;78.15
55675;BME280;41562;44.330;23.802;2023-03-03T11:49:19;100337.69;;;7.86;72.98
55675;BME280;41562;44.330;23.802;2023-03-03T11:52:46;100335.38;;;7.94;75.21
55675;BME280;41562;44.330;23.802;2023-03-03T11:55:12;100330.53;;;8.18;80.54
55675;BME280;41562;44.330;23.802;2023-03-03T11:58:21;100328.94;;;8.17;72.52
55675;BME280;41562;44.330;23.802;2023-03-03T12:03:57;100329.94;;;8.38;72.53
55675;BME280;41562;44.330;23.802;2023-03-03T12:12:43;100319.69;;;7.98;74.60
55675;BME280;41562;44.330;23.802;2023-03-03T12:20:58;100315.53;;;8.07;77.60
55675;BME280;41562;44.330;23.802;2023-03-03T12:29:18;100320.94;;;8.17;77.38
55675;BME280;41562;44.330;23.802;2023-03-03T12:40:24;100301.41;;;8.33;76.22
55675;BME280;41562;44.330;23.802;2023-03-03T12:48:43;100297.91;;;8.65;74.79
55675;BME280;41562;44.330;23.802;2023-03-03T12:51:17;100306.97;;;8.64;75.07
55675;BME280;41562;44.330;23.802;2023-03-03T12:56:56;100294.25;;;8.39;77.69
55675;BME280;41562;44.330;23.802;2023-03-03T13:03:21;100293.75;;;8.42;76.52
55675;BME280;41562;44.330;23.802;2023-03-03T13:14:30;100288.63;;;8.35;79.19
55675;BME280;41562;44.330;23.802;2023-03-03T13:20:02;100278.09;;;8.19;78.87
55675;BME280;41562;44.330;23.802;2023-03-03T13:22:40;100277.84;;;8.20;79.33
55675;BME280;41562;44.330;23.802;2023-03-03T13:30:48;100258.47;;;11.16;76.86
55675;BME280;41562;44.330;23.802;2023-03-03T13:33:25;100268.75;;;9.67;74.65
55675;BME280;41562;44.330;23.802;2023-03-03T13:36:12;100263.69;;;8.99;79.35
55675;BME280;41562;44.330;23.802;2023-03-03T13:38:52;100266.91;;;8.54;78.99
55675;BME280;41562;44.330;23.802;2023-03-03T13:41:44;100257.56;;;8.46;79.67
55675;BME280;41562;44.330;23.802;2023-03-03T13:47:13;100257.38;;;8.26;80.99
55675;BME280;41562;44.330;23.802;2023-03-03T13:52:21;100251.44;;;8.19;81.61
55675;BME280;41562;44.330;23.802;2023-03-03T13:58:07;100255.38;;;8.43;80.13
55675;BME280;41562;44.330;23.802;2023-03-03T14:06:03;100255.94;;;8.13;83.47
55675;BME280;41562;44.330;23.802;2023-03-03T14:19:39;100253.06;;;8.20;83.00
55675;BME280;41562;44.330;23.802;2023-03-03T14:22:21;100260.38;;;8.02;83.42
55675;BME280;41562;44.330;23.802;2023-03-03T14:40:44;100243.31;;;8.30;82.49
55675;BME280;41562;44.330;23.802;2023-03-03T14:48:59;100230.13;;;8.51;81.35
55675;BME280;41562;44.330;23.802;2023-03-03T14:54:27;100242.69;;;8.23;83.98
55675;BME280;41562;44.330;23.802;2023-03-03T14:59:56;100234.47;;;8.30;83.46
55675;BME280;41562;44.330;23.802;2023-03-03T15:02:56;100234.25;;;7.99;84.69
55675;BME280;41562;44.330;23.802;2023-03-03T15:05:29;100231.97;;;8.13;85.35
55675;BME280;41562;44.330;23.802;2023-03-03T15:10:38;100231.84;;;7.98;85.65
55675;BME280;41562;44.330;23.802;2023-03-03T15:15:50;100228.16;;;8.04;86.81
55675;BME280;41562;44.330;23.802;2023-03-03T15:18:19;100226.25;;;7.99;86.31
55675;BME280;41562;44.330;23.802;2023-03-03T15:29:01;100225.75;;;8.02;88.13
55675;BME280;41562;44.330;23.802;2023-03-03T15:37:07;100226.19;;;7.89;90.59
55675;BME280;41562;44.330;23.802;2023-03-03T15:40:42;100226.41;;;7.83;90.06
55675;BME280;41562;44.330;23.802;2023-03-03T15:45:46;100222.72;;;7.89;90.22
55675;BME280;41562;44.330;23.802;2023-03-03T15:54:16;100223.38;;;7.74;90.85
55675;BME280;41562;44.330;23.802;2023-03-03T15:56:53;100221.16;;;7.93;94.91
55675;BME280;41562;44.330;23.802;2023-03-03T16:04:52;100229.34;;;7.59;92.93
55675;BME280;41562;44.330;23.802;2023-03-03T16:18:35;100249.78;;;7.54;93.97
55675;BME280;41562;44.330;23.802;2023-03-03T16:24:00;100244.06;;;7.40;96.07
55675;BME280;41562;44.330;23.802;2023-03-03T16:26:42;100251.63;;;7.53;95.33
55675;BME280;41562;44.330;23.802;2023-03-03T16:35:23;100256.38;;;7.24;96.83
55675;BME280;41562;44.330;23.802;2023-03-03T16:38:01;100259.31;;;7.50;96.14
55675;BME280;41562;44.330;23.802;2023-03-03T16:43:26;100260.78;;;7.14;98.17
55675;BME280;41562;44.330;23.802;2023-03-03T16:46:02;100261.28;;;7.33;98.85
55675;BME280;41562;44.330;23.802;2023-03-03T16:48:44;100268.00;;;7.40;97.70
55675;BME280;41562;44.330;23.802;2023-03-03T16:56:53;100277.34;;;7.43;98.54
55675;BME280;41562;44.330;23.802;2023-03-03T16:59:38;100271.84;;;7.27;99.41
55675;BME280;41562;44.330;23.802;2023-03-03T17:04:54;100266.81;;;7.09;100.00
55675;BME280;41562;44.330;23.802;2023-03-03T17:10:20;100278.31;;;7.15;100.00
55675;BME280;41562;44.330;23.802;2023-03-03T17:13:00;100272.31;;;7.03;100.00
55675;BME280;41562;44.330;23.802;2023-03-03T17:15:48;100271.84;;;7.06;100.00
55675;BME280;41562;44.330;23.802;2023-03-03T17:18:47;100271.16;;;6.94;100.00
55675;BME280;41562;44.330;23.802;2023-03-03T17:30:09;100283.22;;;6.63;100.00
55675;BME280;41562;44.330;23.802;2023-03-03T17:43:23;100297.22;;;6.75;100.00
55675;BME280;41562;44.330;23.802;2023-03-03T17:45:55;100304.06;;;6.54;100.00
55675;BME280;41562;44.330;23.802;2023-03-03T17:59:54;100309.16;;;6.56;100.00
55675;BME280;41562;44.330;23.802;2023-03-03T18:05:25;100315.19;;;6.51;100.00
55675;BME280;41562;44.330;23.802;2023-03-03T18:21:32;100308.91;;;6.40;100.00
55675;BME280;41562;44.330;23.802;2023-03-03T18:26:53;100321.78;;;6.32;100.00
55675;BME280;41562;44.330;23.802;2023-03-03T18:29:26;100321.13;;;6.41;100.00
55675;BME280;41562;44.330;23.802;2023-03-03T18:37:01;100328.13;;;6.64;100.00
55675;BME280;41562;44.330;23.802;2023-03-03T18:40:15;100328.88;;;6.43;100.00
55675;BME280;41562;44.330;23.802;2023-03-03T18:42:39;100324.34;;;6.27;100.00
55675;BME280;41562;44.330;23.802;2023-03-03T18:55:48;100334.56;;;6.35;100.00